sensor_id;sensor_type;location;lat;lon;timestamp;P1;durP1;ratioP1;P2;durP2;ratioP2
5682;SDS011;2864;49.220;8.654;2023-12-20T00:02:18;15.03;;;11.17;;
5682;SDS011;2864;49.220;8.654;2023-12-20T00:04:43;13.30;;;9.37;;
5682;SDS011;2864;49.220;8.654;2023-12-20T00:07:09;15.43;;;9.50;;
5682;SDS011;2864;49.220;8.654;2023-12-20T00:09:34;16.23;;;10.83;;
5682;SDS011;2864;49.220;8.654;2023-12-20T00:12:00;14.83;;;10.53;;
5682;SDS011;2864;49.220;8.654;2023-12-20T00:14:26;12.90;;;9.57;;
5682;SDS011;2864;49.220;8.654;2023-12-20T00:16:51;16.17;;;10.27;;
5682;SDS011;2864;49.220;8.654;2023-12-20T00:19:17;14.23;;;9.53;;
5682;SDS011;2864;49.220;8.654;2023-12-20T00:21:43;14.57;;;10.10;;
5682;SDS011;2864;49.220;8.654;2023-12-20T00:24:09;15.03;;;10.47;;
5682;SDS011;2864;49.220;8.654;2023-12-20T00:26:35;14.30;;;10.43;;
5682;SDS011;2864;49.220;8.654;2023-12-20T00:29:01;16.07;;;10.47;;
5682;SDS011;2864;49.220;8.654;2023-12-20T00:31:26;14.60;;;10.80;;
5682;SDS011;2864;49.220;8.654;2023-12-20T00:33:52;15.93;;;11.50;;
5682;SDS011;2864;49.220;8.654;2023-12-20T00:36:18;16.53;;;11.70;;
5682;SDS011;2864;49.220;8.654;2023-12-20T00:38:44;17.43;;;11.37;;
5682;SDS011;2864;49.220;8.654;2023-12-20T00:41:10;15.57;;;11.13;;
5682;SDS011;2864;49.220;8.654;2023-12-20T00:43:36;17.20;;;11.17;;
5682;SDS011;2864;49.220;8.654;2023-12-20T00:46:02;17.17;;;11.67;;
5682;SDS011;2864;49.220;8.654;2023-12-20T00:48:27;17.40;;;12.10;;
5682;SDS011;2864;49.220;8.654;2023-12-20T00:50:55;21.37;;;12.00;;
5682;SDS011;2864;49.220;8.654;2023-12-20T00:53:20;17.23;;;12.63;;
5682;SDS011;2864;49.220;8.654;2023-12-20T00:55:46;17.17;;;12.30;;
5682;SDS011;2864;49.220;8.654;2023-12-20T00:58:12;19.10;;;12.53;;
5682;SDS011;2864;49.220;8.654;2023-12-20T01:00:40;18.33;;;12.23;;
5682;SDS011;2864;49.220;8.654;2023-12-20T01:03:07;18.00;;;12.87;;
5682;SDS011;2864;49.220;8.654;2023-12-20T01:05:32;19.27;;;12.10;;
5682;SDS011;2864;49.220;8.654;2023-12-20T01:07:58;19.27;;;11.87;;
5682;SDS011;2864;49.220;8.654;2023-12-20T01:10:24;18.97;;;12.43;;
5682;SDS011;2864;49.220;8.654;2023-12-20T01:12:53;16.73;;;11.37;;
5682;SDS011;2864;49.220;8.654;2023-12-20T01:15:18;17.20;;;12.03;;
5682;SDS011;2864;49.220;8.654;2023-12-20T01:17:44;16.23;;;10.90;;
5682;SDS011;2864;49.220;8.654;2023-12-20T01:20:10;14.77;;;11.20;;
5682;SDS011;2864;49.220;8.654;2023-12-20T01:22:36;15.37;;;10.73;;
5682;SDS011;2864;49.220;8.654;2023-12-20T01:25:02;13.83;;;10.40;;
5682;SDS011;2864;49.220;8.654;2023-12-20T01:27:28;15.63;;;11.03;;
5682;SDS011;2864;49.220;8.654;2023-12-20T01:29:54;17.60;;;10.47;;
5682;SDS011;2864;49.220;8.654;2023-12-20T01:32:19;13.13;;;10.60;;
5682;SDS011;2864;49.220;8.654;2023-12-20T01:34:45;14.63;;;10.47;;
5682;SDS011;2864;49.220;8.654;2023-12-20T01:37:11;11.47;;;8.30;;
5682;SDS011;2864;49.220;8.654;2023-12-20T01:39:36;12.97;;;9.87;;
5682;SDS011;2864;49.220;8.654;2023-12-20T01:42:02;11.77;;;8.37;;
5682;SDS011;2864;49.220;8.654;2023-12-20T01:44:29;10.07;;;7.77;;
5682;SDS011;2864;49.220;8.654;2023-12-20T01:46:54;11.23;;;8.23;;
5682;SDS011;2864;49.220;8.654;2023-12-20T01:49:21;11.97;;;8.40;;
5682;SDS011;2864;49.220;8.654;2023-12-20T01:51:47;10.80;;;8.53;;
5682;SDS011;2864;49.220;8.654;2023-12-20T01:54:13;12.17;;;8.03;;
5682;SDS011;2864;49.220;8.654;2023-12-20T01:56:39;10.87;;;8.10;;
5682;SDS011;2864;49.220;8.654;2023-12-20T01:59:05;9.23;;;7.37;;
5682;SDS011;2864;49.220;8.654;2023-12-20T02:01:32;9.87;;;7.50;;
5682;SDS011;2864;49.220;8.654;2023-12-20T02:03:58;10.40;;;7.40;;
5682;SDS011;2864;49.220;8.654;2023-12-20T02:06:25;8.80;;;6.93;;
5682;SDS011;2864;49.220;8.654;2023-12-20T02:08:55;9.07;;;7.03;;
5682;SDS011;2864;49.220;8.654;2023-12-20T02:11:34;9.77;;;7.80;;
5682;SDS011;2864;49.220;8.654;2023-12-20T02:14:01;10.07;;;7.23;;
5682;SDS011;2864;49.220;8.654;2023-12-20T02:16:27;9.33;;;7.37;;
5682;SDS011;2864;49.220;8.654;2023-12-20T02:18:53;8.37;;;6.73;;
5682;SDS011;2864;49.220;8.654;2023-12-20T02:21:23;9.87;;;7.73;;
5682;SDS011;2864;49.220;8.654;2023-12-20T02:23:59;9.90;;;7.37;;
5682;SDS011;2864;49.220;8.654;2023-12-20T02:26:25;8.70;;;6.90;;
5682;SDS011;2864;49.220;8.654;2023-12-20T02:28:51;9.33;;;7.13;;
5682;SDS011;2864;49.220;8.654;2023-12-20T02:31:20;10.27;;;7.37;;
5682;SDS011;2864;49.220;8.654;2023-12-20T02:33:47;10.13;;;6.40;;
5682;SDS011;2864;49.220;8.654;2023-12-20T02:36:13;9.73;;;6.77;;
5682;SDS011;2864;49.220;8.654;2023-12-20T02:38:38;8.67;;;6.57;;
5682;SDS011;2864;49.220;8.654;2023-12-20T02:41:04;7.60;;;5.93;;
5682;SDS011;2864;49.220;8.654;2023-12-20T02:43:29;10.83;;;6.63;;
5682;SDS011;2864;49.220;8.654;2023-12-20T02:45:56;9.67;;;6.93;;
5682;SDS011;2864;49.220;8.654;2023-12-20T02:48:22;8.97;;;6.90;;
5682;SDS011;2864;49.220;8.654;2023-12-20T02:50:48;8.73;;;7.00;;
5682;SDS011;2864;49.220;8.654;2023-12-20T02:53:14;8.60;;;7.33;;
5682;SDS011;2864;49.220;8.654;2023-12-20T02:55:40;9.50;;;7.30;;
5682;SDS011;2864;49.220;8.654;2023-12-20T02:58:06;11.10;;;7.37;;
5682;SDS011;2864;49.220;8.654;2023-12-20T03:00:32;9.13;;;7.90;;
5682;SDS011;2864;49.220;8.654;2023-12-20T03:02:58;11.00;;;8.10;;
5682;SDS011;2864;49.220;8.654;2023-12-20T03:05:24;10.90;;;8.40;;
5682;SDS011;2864;49.220;8.654;2023-12-20T03:07:50;9.93;;;7.20;;
5682;SDS011;2864;49.220;8.654;2023-12-20T03:10:16;9.60;;;7.80;;
5682;SDS011;2864;49.220;8.654;2023-12-20T03:12:43;11.70;;;8.13;;
5682;SDS011;2864;49.220;8.654;2023-12-20T03:15:08;11.40;;;8.87;;
5682;SDS011;2864;49.220;8.654;2023-12-20T03:17:34;8.90;;;7.27;;
5682;SDS011;2864;49.220;8.654;2023-12-20T03:20:00;8.37;;;6.60;;
5682;SDS011;2864;49.220;8.654;2023-12-20T03:22:26;10.50;;;7.67;;
5682;SDS011;2864;49.220;8.654;2023-12-20T03:24:51;10.03;;;7.40;;
5682;SDS011;2864;49.220;8.654;2023-12-20T03:27:17;9.27;;;7.13;;
5682;SDS011;2864;49.220;8.654;2023-12-20T03:29:43;9.37;;;7.53;;
5682;SDS011;2864;49.220;8.654;2023-12-20T03:32:08;8.97;;;6.87;;
5682;SDS011;2864;49.220;8.654;2023-12-20T03:34:34;8.30;;;6.87;;
5682;SDS011;2864;49.220;8.654;2023-12-20T03:36:59;10.17;;;7.23;;
5682;SDS011;2864;49.220;8.654;2023-12-20T03:39:25;9.27;;;7.17;;
5682;SDS011;2864;49.220;8.654;2023-12-20T03:41:50;8.70;;;6.97;;
5682;SDS011;2864;49.220;8.654;2023-12-20T03:44:16;8.83;;;6.40;;
5682;SDS011;2864;49.220;8.654;2023-12-20T03:46:42;8.43;;;6.30;;
5682;SDS011;2864;49.220;8.654;2023-12-20T03:49:10;9.20;;;6.30;;
5682;SDS011;2864;49.220;8.654;2023-12-20T03:51:36;9.03;;;6.77;;
5682;SDS011;2864;49.220;8.654;2023-12-20T03:54:01;8.10;;;6.07;;
5682;SDS011;2864;49.220;8.654;2023-12-20T03:56:27;10.03;;;6.00;;
5682;SDS011;2864;49.220;8.654;2023-12-20T03:58:53;7.93;;;6.03;;
5682;SDS011;2864;49.220;8.654;2023-12-20T04:01:19;7.83;;;5.83;;
5682;SDS011;2864;49.220;8.654;2023-12-20T04:03:44;5.70;;;4.87;;
5682;SDS011;2864;49.220;8.654;2023-12-20T04:06:10;8.37;;;5.63;;
5682;SDS011;2864;49.220;8.654;2023-12-20T04:08:35;6.97;;;5.27;;
5682;SDS011;2864;49.220;8.654;2023-12-20T04:11:01;5.67;;;5.03;;
5682;SDS011;2864;49.220;8.654;2023-12-20T04:13:27;5.57;;;4.50;;
5682;SDS011;2864;49.220;8.654;2023-12-20T04:15:53;5.47;;;4.53;;
5682;SDS011;2864;49.220;8.654;2023-12-20T04:18:18;7.07;;;5.13;;
5682;SDS011;2864;49.220;8.654;2023-12-20T04:20:44;7.00;;;4.87;;
5682;SDS011;2864;49.220;8.654;2023-12-20T04:23:10;5.97;;;5.03;;
5682;SDS011;2864;49.220;8.654;2023-12-20T04:25:36;5.60;;;5.00;;
5682;SDS011;2864;49.220;8.654;2023-12-20T04:28:02;7.20;;;4.87;;
5682;SDS011;2864;49.220;8.654;2023-12-20T04:30:27;5.53;;;4.90;;
5682;SDS011;2864;49.220;8.654;2023-12-20T04:32:53;6.50;;;5.63;;
5682;SDS011;2864;49.220;8.654;2023-12-20T04:35:19;5.67;;;4.80;;
5682;SDS011;2864;49.220;8.654;2023-12-20T04:37:45;5.50;;;4.80;;
5682;SDS011;2864;49.220;8.654;2023-12-20T04:40:12;6.40;;;5.03;;
5682;SDS011;2864;49.220;8.654;2023-12-20T04:42:38;5.57;;;4.73;;
5682;SDS011;2864;49.220;8.654;2023-12-20T04:45:04;6.90;;;4.70;;
5682;SDS011;2864;49.220;8.654;2023-12-20T04:47:30;5.33;;;4.60;;
5682;SDS011;2864;49.220;8.654;2023-12-20T04:49:56;6.03;;;4.80;;
5682;SDS011;2864;49.220;8.654;2023-12-20T04:52:21;6.07;;;5.20;;
5682;SDS011;2864;49.220;8.654;2023-12-20T04:54:47;5.43;;;4.83;;
5682;SDS011;2864;49.220;8.654;2023-12-20T04:57:12;5.83;;;4.93;;
5682;SDS011;2864;49.220;8.654;2023-12-20T04:59:38;7.00;;;5.00;;
5682;SDS011;2864;49.220;8.654;2023-12-20T05:02:04;4.97;;;4.17;;
5682;SDS011;2864;49.220;8.654;2023-12-20T05:04:30;6.50;;;4.93;;
5682;SDS011;2864;49.220;8.654;2023-12-20T05:06:56;5.37;;;4.57;;
5682;SDS011;2864;49.220;8.654;2023-12-20T05:09:22;6.43;;;4.87;;
5682;SDS011;2864;49.220;8.654;2023-12-20T05:11:48;7.27;;;4.53;;
5682;SDS011;2864;49.220;8.654;2023-12-20T05:14:14;5.33;;;4.80;;
5682;SDS011;2864;49.220;8.654;2023-12-20T05:16:39;5.57;;;5.07;;
5682;SDS011;2864;49.220;8.654;2023-12-20T05:19:05;6.13;;;5.53;;
5682;SDS011;2864;49.220;8.654;2023-12-20T05:21:31;7.50;;;5.33;;
5682;SDS011;2864;49.220;8.654;2023-12-20T05:23:58;6.97;;;5.60;;
5682;SDS011;2864;49.220;8.654;2023-12-20T05:26:23;5.57;;;4.90;;
5682;SDS011;2864;49.220;8.654;2023-12-20T05:28:49;6.90;;;6.17;;
5682;SDS011;2864;49.220;8.654;2023-12-20T05:31:15;6.30;;;5.53;;
5682;SDS011;2864;49.220;8.654;2023-12-20T05:33:40;6.70;;;5.30;;
5682;SDS011;2864;49.220;8.654;2023-12-20T05:36:06;8.23;;;5.50;;
5682;SDS011;2864;49.220;8.654;2023-12-20T05:38:36;6.40;;;4.97;;
5682;SDS011;2864;49.220;8.654;2023-12-20T05:41:02;5.93;;;5.17;;
5682;SDS011;2864;49.220;8.654;2023-12-20T05:43:27;7.93;;;6.00;;
5682;SDS011;2864;49.220;8.654;2023-12-20T05:45:53;7.07;;;5.70;;
5682;SDS011;2864;49.220;8.654;2023-12-20T05:48:19;6.37;;;5.37;;
5682;SDS011;2864;49.220;8.654;2023-12-20T05:50:44;6.10;;;4.57;;
5682;SDS011;2864;49.220;8.654;2023-12-20T05:53:10;5.83;;;5.03;;
5682;SDS011;2864;49.220;8.654;2023-12-20T05:55:36;6.00;;;5.37;;
5682;SDS011;2864;49.220;8.654;2023-12-20T05:58:01;6.27;;;5.33;;
5682;SDS011;2864;49.220;8.654;2023-12-20T06:00:28;7.93;;;6.23;;
5682;SDS011;2864;49.220;8.654;2023-12-20T06:02:53;6.60;;;5.50;;
5682;SDS011;2864;49.220;8.654;2023-12-20T06:05:19;6.97;;;5.30;;
5682;SDS011;2864;49.220;8.654;2023-12-20T06:07:45;6.45;;;5.60;;
5682;SDS011;2864;49.220;8.654;2023-12-20T06:10:13;7.20;;;5.23;;
5682;SDS011;2864;49.220;8.654;2023-12-20T06:12:39;6.27;;;4.93;;
5682;SDS011;2864;49.220;8.654;2023-12-20T06:15:05;5.37;;;4.80;;
5682;SDS011;2864;49.220;8.654;2023-12-20T06:17:31;5.43;;;4.40;;
5682;SDS011;2864;49.220;8.654;2023-12-20T06:19:57;6.83;;;5.47;;
5682;SDS011;2864;49.220;8.654;2023-12-20T06:22:23;6.63;;;5.63;;
5682;SDS011;2864;49.220;8.654;2023-12-20T06:24:49;6.13;;;5.50;;
5682;SDS011;2864;49.220;8.654;2023-12-20T06:27:15;6.53;;;5.20;;
5682;SDS011;2864;49.220;8.654;2023-12-20T06:29:41;5.97;;;4.90;;
5682;SDS011;2864;49.220;8.654;2023-12-20T06:32:09;5.30;;;4.77;;
5682;SDS011;2864;49.220;8.654;2023-12-20T06:34:35;5.30;;;4.70;;
5682;SDS011;2864;49.220;8.654;2023-12-20T06:37:00;5.63;;;4.83;;
5682;SDS011;2864;49.220;8.654;2023-12-20T06:39:26;6.00;;;5.40;;
5682;SDS011;2864;49.220;8.654;2023-12-20T06:41:53;5.73;;;5.03;;
5682;SDS011;2864;49.220;8.654;2023-12-20T06:44:18;5.60;;;5.10;;
5682;SDS011;2864;49.220;8.654;2023-12-20T06:46:44;6.10;;;4.93;;
5682;SDS011;2864;49.220;8.654;2023-12-20T06:49:10;6.17;;;5.13;;
5682;SDS011;2864;49.220;8.654;2023-12-20T06:51:37;5.87;;;5.10;;
5682;SDS011;2864;49.220;8.654;2023-12-20T06:54:02;6.43;;;5.73;;
5682;SDS011;2864;49.220;8.654;2023-12-20T06:56:28;6.27;;;5.07;;
5682;SDS011;2864;49.220;8.654;2023-12-20T06:58:54;7.17;;;6.17;;
5682;SDS011;2864;49.220;8.654;2023-12-20T07:01:19;8.40;;;5.40;;
5682;SDS011;2864;49.220;8.654;2023-12-20T07:03:45;8.93;;;6.43;;
5682;SDS011;2864;49.220;8.654;2023-12-20T07:06:10;6.70;;;5.80;;
5682;SDS011;2864;49.220;8.654;2023-12-20T07:08:36;7.10;;;6.37;;
5682;SDS011;2864;49.220;8.654;2023-12-20T07:11:02;6.83;;;5.73;;
5682;SDS011;2864;49.220;8.654;2023-12-20T07:13:28;6.27;;;5.63;;
5682;SDS011;2864;49.220;8.654;2023-12-20T07:15:54;7.87;;;6.03;;
5682;SDS011;2864;49.220;8.654;2023-12-20T07:18:20;9.67;;;6.87;;
5682;SDS011;2864;49.220;8.654;2023-12-20T07:20:46;7.03;;;5.70;;
5682;SDS011;2864;49.220;8.654;2023-12-20T07:23:12;7.30;;;5.90;;
5682;SDS011;2864;49.220;8.654;2023-12-20T07:25:37;6.47;;;5.63;;
5682;SDS011;2864;49.220;8.654;2023-12-20T07:28:03;9.70;;;5.93;;
5682;SDS011;2864;49.220;8.654;2023-12-20T07:30:28;7.10;;;5.80;;
5682;SDS011;2864;49.220;8.654;2023-12-20T07:32:54;6.37;;;5.63;;
5682;SDS011;2864;49.220;8.654;2023-12-20T07:35:21;6.13;;;5.53;;
5682;SDS011;2864;49.220;8.654;2023-12-20T07:37:47;7.43;;;5.30;;
5682;SDS011;2864;49.220;8.654;2023-12-20T07:40:13;6.97;;;5.53;;
5682;SDS011;2864;49.220;8.654;2023-12-20T07:42:39;6.47;;;5.53;;
5682;SDS011;2864;49.220;8.654;2023-12-20T07:45:05;7.13;;;5.33;;
5682;SDS011;2864;49.220;8.654;2023-12-20T07:47:31;6.40;;;5.13;;
5682;SDS011;2864;49.220;8.654;2023-12-20T07:49:57;9.20;;;5.80;;
5682;SDS011;2864;49.220;8.654;2023-12-20T07:52:23;5.90;;;5.13;;
5682;SDS011;2864;49.220;8.654;2023-12-20T07:54:49;6.40;;;5.63;;
5682;SDS011;2864;49.220;8.654;2023-12-20T07:57:15;6.07;;;5.33;;
5682;SDS011;2864;49.220;8.654;2023-12-20T07:59:40;6.67;;;5.27;;
5682;SDS011;2864;49.220;8.654;2023-12-20T08:02:06;7.00;;;4.93;;
5682;SDS011;2864;49.220;8.654;2023-12-20T08:04:32;6.63;;;5.53;;
5682;SDS011;2864;49.220;8.654;2023-12-20T08:06:58;9.27;;;5.67;;
5682;SDS011;2864;49.220;8.654;2023-12-20T08:09:25;7.73;;;5.77;;
5682;SDS011;2864;49.220;8.654;2023-12-20T08:11:51;6.97;;;5.10;;
5682;SDS011;2864;49.220;8.654;2023-12-20T08:14:17;6.33;;;5.37;;
5682;SDS011;2864;49.220;8.654;2023-12-20T08:16:43;6.70;;;5.13;;
5682;SDS011;2864;49.220;8.654;2023-12-20T08:19:08;6.77;;;5.40;;
5682;SDS011;2864;49.220;8.654;2023-12-20T08:21:34;6.33;;;4.57;;
5682;SDS011;2864;49.220;8.654;2023-12-20T08:24:00;5.63;;;4.80;;
5682;SDS011;2864;49.220;8.654;2023-12-20T08:26:26;5.73;;;4.90;;
5682;SDS011;2864;49.220;8.654;2023-12-20T08:28:52;5.60;;;4.40;;
5682;SDS011;2864;49.220;8.654;2023-12-20T08:31:18;6.10;;;4.47;;
5682;SDS011;2864;49.220;8.654;2023-12-20T08:33:44;5.50;;;4.40;;
5682;SDS011;2864;49.220;8.654;2023-12-20T08:36:14;6.67;;;5.07;;
5682;SDS011;2864;49.220;8.654;2023-12-20T08:38:39;7.07;;;5.07;;
5682;SDS011;2864;49.220;8.654;2023-12-20T08:41:06;6.13;;;4.53;;
5682;SDS011;2864;49.220;8.654;2023-12-20T08:43:32;6.77;;;4.73;;
5682;SDS011;2864;49.220;8.654;2023-12-20T08:45:58;7.27;;;4.37;;
5682;SDS011;2864;49.220;8.654;2023-12-20T08:48:24;5.73;;;5.07;;
5682;SDS011;2864;49.220;8.654;2023-12-20T08:50:49;5.10;;;4.60;;
5682;SDS011;2864;49.220;8.654;2023-12-20T08:53:17;6.93;;;3.87;;
5682;SDS011;2864;49.220;8.654;2023-12-20T08:55:46;4.70;;;3.53;;
5682;SDS011;2864;49.220;8.654;2023-12-20T08:58:12;3.90;;;3.50;;
5682;SDS011;2864;49.220;8.654;2023-12-20T09:00:37;5.00;;;3.27;;
5682;SDS011;2864;49.220;8.654;2023-12-20T09:03:04;4.97;;;3.40;;
5682;SDS011;2864;49.220;8.654;2023-12-20T09:05:29;3.87;;;2.83;;
5682;SDS011;2864;49.220;8.654;2023-12-20T09:07:55;6.77;;;3.73;;
5682;SDS011;2864;49.220;8.654;2023-12-20T09:10:21;5.53;;;2.93;;
5682;SDS011;2864;49.220;8.654;2023-12-20T09:12:51;4.90;;;3.00;;
5682;SDS011;2864;49.220;8.654;2023-12-20T09:15:19;3.60;;;2.70;;
5682;SDS011;2864;49.220;8.654;2023-12-20T09:17:44;5.67;;;2.63;;
5682;SDS011;2864;49.220;8.654;2023-12-20T09:20:10;7.30;;;3.00;;
5682;SDS011;2864;49.220;8.654;2023-12-20T09:22:38;7.83;;;2.70;;
5682;SDS011;2864;49.220;8.654;2023-12-20T09:25:04;6.10;;;2.70;;
5682;SDS011;2864;49.220;8.654;2023-12-20T09:27:30;6.80;;;3.03;;
5682;SDS011;2864;49.220;8.654;2023-12-20T09:29:56;2.87;;;2.30;;
5682;SDS011;2864;49.220;8.654;2023-12-20T09:32:22;5.87;;;2.70;;
5682;SDS011;2864;49.220;8.654;2023-12-20T09:34:48;3.93;;;3.13;;
5682;SDS011;2864;49.220;8.654;2023-12-20T09:37:14;6.23;;;3.40;;
5682;SDS011;2864;49.220;8.654;2023-12-20T09:39:40;5.90;;;3.60;;
5682;SDS011;2864;49.220;8.654;2023-12-20T09:42:06;6.63;;;3.90;;
5682;SDS011;2864;49.220;8.654;2023-12-20T09:44:32;4.37;;;3.27;;
5682;SDS011;2864;49.220;8.654;2023-12-20T09:47:02;6.97;;;3.70;;
5682;SDS011;2864;49.220;8.654;2023-12-20T09:49:28;6.63;;;2.77;;
5682;SDS011;2864;49.220;8.654;2023-12-20T09:51:55;4.00;;;3.20;;
5682;SDS011;2864;49.220;8.654;2023-12-20T09:54:21;4.77;;;3.37;;
5682;SDS011;2864;49.220;8.654;2023-12-20T09:56:48;6.13;;;2.67;;
5682;SDS011;2864;49.220;8.654;2023-12-20T09:59:14;7.83;;;2.80;;
5682;SDS011;2864;49.220;8.654;2023-12-20T10:01:40;5.83;;;2.20;;
5682;SDS011;2864;49.220;8.654;2023-12-20T10:04:08;5.87;;;2.53;;
5682;SDS011;2864;49.220;8.654;2023-12-20T10:06:36;6.17;;;2.10;;
5682;SDS011;2864;49.220;8.654;2023-12-20T10:09:02;10.10;;;2.13;;
5682;SDS011;2864;49.220;8.654;2023-12-20T10:11:27;4.57;;;1.90;;
5682;SDS011;2864;49.220;8.654;2023-12-20T10:13:58;5.23;;;2.53;;
5682;SDS011;2864;49.220;8.654;2023-12-20T10:16:26;7.07;;;2.13;;
5682;SDS011;2864;49.220;8.654;2023-12-20T10:18:52;6.10;;;2.23;;
5682;SDS011;2864;49.220;8.654;2023-12-20T10:21:18;3.70;;;2.17;;
5682;SDS011;2864;49.220;8.654;2023-12-20T10:23:45;5.20;;;2.00;;
5682;SDS011;2864;49.220;8.654;2023-12-20T10:26:15;3.10;;;1.90;;
5682;SDS011;2864;49.220;8.654;2023-12-20T10:28:54;4.70;;;2.10;;
5682;SDS011;2864;49.220;8.654;2023-12-20T10:31:28;4.93;;;2.10;;
5682;SDS011;2864;49.220;8.654;2023-12-20T10:33:58;3.83;;;1.70;;
5682;SDS011;2864;49.220;8.654;2023-12-20T10:36:27;5.73;;;2.73;;
5682;SDS011;2864;49.220;8.654;2023-12-20T10:38:54;6.20;;;2.43;;
5682;SDS011;2864;49.220;8.654;2023-12-20T10:41:26;8.17;;;2.40;;
5682;SDS011;2864;49.220;8.654;2023-12-20T10:43:56;4.77;;;1.90;;
5682;SDS011;2864;49.220;8.654;2023-12-20T10:46:26;5.10;;;2.33;;
5682;SDS011;2864;49.220;8.654;2023-12-20T10:48:54;4.93;;;2.13;;
5682;SDS011;2864;49.220;8.654;2023-12-20T10:51:21;8.07;;;2.37;;
5682;SDS011;2864;49.220;8.654;2023-12-20T10:53:48;5.87;;;2.20;;
5682;SDS011;2864;49.220;8.654;2023-12-20T10:56:15;5.07;;;2.30;;
5682;SDS011;2864;49.220;8.654;2023-12-20T10:58:43;7.47;;;2.53;;
5682;SDS011;2864;49.220;8.654;2023-12-20T11:01:09;4.57;;;2.47;;
5682;SDS011;2864;49.220;8.654;2023-12-20T11:03:37;7.97;;;2.83;;
5682;SDS011;2864;49.220;8.654;2023-12-20T11:06:26;8.93;;;2.93;;
5682;SDS011;2864;49.220;8.654;2023-12-20T11:09:14;6.93;;;2.30;;
5682;SDS011;2864;49.220;8.654;2023-12-20T11:12:12;5.43;;;2.30;;
5682;SDS011;2864;49.220;8.654;2023-12-20T11:14:48;5.40;;;2.07;;
5682;SDS011;2864;49.220;8.654;2023-12-20T11:17:15;8.33;;;2.67;;
5682;SDS011;2864;49.220;8.654;2023-12-20T11:22:30;4.67;;;2.50;;
5682;SDS011;2864;49.220;8.654;2023-12-20T11:25:06;4.80;;;2.50;;
5682;SDS011;2864;49.220;8.654;2023-12-20T11:27:36;6.00;;;2.37;;
5682;SDS011;2864;49.220;8.654;2023-12-20T11:30:05;3.77;;;2.30;;
5682;SDS011;2864;49.220;8.654;2023-12-20T11:32:33;4.87;;;2.30;;
5682;SDS011;2864;49.220;8.654;2023-12-20T11:35:00;11.30;;;2.60;;
5682;SDS011;2864;49.220;8.654;2023-12-20T11:37:36;6.13;;;2.40;;
5682;SDS011;2864;49.220;8.654;2023-12-20T11:40:03;6.93;;;2.50;;
5682;SDS011;2864;49.220;8.654;2023-12-20T11:42:38;5.23;;;2.40;;
5682;SDS011;2864;49.220;8.654;2023-12-20T11:45:06;5.83;;;2.50;;
5682;SDS011;2864;49.220;8.654;2023-12-20T11:47:34;6.37;;;2.57;;
5682;SDS011;2864;49.220;8.654;2023-12-20T11:52:57;9.17;;;2.90;;
5682;SDS011;2864;49.220;8.654;2023-12-20T11:55:23;7.80;;;2.50;;
5682;SDS011;2864;49.220;8.654;2023-12-20T11:57:49;10.50;;;3.10;;
5682;SDS011;2864;49.220;8.654;2023-12-20T12:00:16;6.13;;;2.87;;
5682;SDS011;2864;49.220;8.654;2023-12-20T12:02:42;6.17;;;2.40;;
5682;SDS011;2864;49.220;8.654;2023-12-20T12:05:08;9.13;;;2.77;;
5682;SDS011;2864;49.220;8.654;2023-12-20T12:07:34;6.40;;;2.53;;
5682;SDS011;2864;49.220;8.654;2023-12-20T12:10:00;5.87;;;3.20;;
5682;SDS011;2864;49.220;8.654;2023-12-20T12:12:26;5.90;;;2.87;;
5682;SDS011;2864;49.220;8.654;2023-12-20T12:14:52;7.17;;;3.03;;
5682;SDS011;2864;49.220;8.654;2023-12-20T12:17:19;6.13;;;3.47;;
5682;SDS011;2864;49.220;8.654;2023-12-20T12:19:45;7.57;;;2.80;;
5682;SDS011;2864;49.220;8.654;2023-12-20T12:22:11;5.13;;;2.83;;
5682;SDS011;2864;49.220;8.654;2023-12-20T12:24:42;8.47;;;3.17;;
5682;SDS011;2864;49.220;8.654;2023-12-20T12:27:09;8.50;;;3.27;;
5682;SDS011;2864;49.220;8.654;2023-12-20T12:29:35;9.40;;;2.97;;
5682;SDS011;2864;49.220;8.654;2023-12-20T12:32:05;5.47;;;3.10;;
5682;SDS011;2864;49.220;8.654;2023-12-20T12:34:34;8.37;;;3.40;;
5682;SDS011;2864;49.220;8.654;2023-12-20T12:37:00;8.43;;;3.20;;
5682;SDS011;2864;49.220;8.654;2023-12-20T12:39:26;9.80;;;3.70;;
5682;SDS011;2864;49.220;8.654;2023-12-20T12:41:55;8.97;;;3.20;;
5682;SDS011;2864;49.220;8.654;2023-12-20T12:44:21;11.47;;;3.10;;
5682;SDS011;2864;49.220;8.654;2023-12-20T12:46:48;6.23;;;3.13;;
5682;SDS011;2864;49.220;8.654;2023-12-20T12:49:19;6.37;;;3.10;;
5682;SDS011;2864;49.220;8.654;2023-12-20T12:51:46;6.13;;;2.90;;
5682;SDS011;2864;49.220;8.654;2023-12-20T12:54:12;10.13;;;3.20;;
5682;SDS011;2864;49.220;8.654;2023-12-20T12:56:38;7.97;;;3.10;;
5682;SDS011;2864;49.220;8.654;2023-12-20T12:59:04;5.10;;;2.40;;
5682;SDS011;2864;49.220;8.654;2023-12-20T13:01:30;6.67;;;2.60;;
5682;SDS011;2864;49.220;8.654;2023-12-20T13:03:56;10.33;;;3.20;;
5682;SDS011;2864;49.220;8.654;2023-12-20T13:06:22;4.60;;;2.57;;
5682;SDS011;2864;49.220;8.654;2023-12-20T13:08:48;9.70;;;3.53;;
5682;SDS011;2864;49.220;8.654;2023-12-20T13:11:14;8.10;;;2.80;;
5682;SDS011;2864;49.220;8.654;2023-12-20T13:13:40;5.80;;;2.47;;
5682;SDS011;2864;49.220;8.654;2023-12-20T13:16:06;7.57;;;2.83;;
5682;SDS011;2864;49.220;8.654;2023-12-20T13:18:32;7.70;;;3.00;;
5682;SDS011;2864;49.220;8.654;2023-12-20T13:20:58;7.30;;;2.80;;
5682;SDS011;2864;49.220;8.654;2023-12-20T13:23:24;7.70;;;2.93;;
5682;SDS011;2864;49.220;8.654;2023-12-20T13:25:49;7.20;;;3.10;;
5682;SDS011;2864;49.220;8.654;2023-12-20T13:28:15;9.40;;;3.40;;
5682;SDS011;2864;49.220;8.654;2023-12-20T13:30:41;6.00;;;2.83;;
5682;SDS011;2864;49.220;8.654;2023-12-20T13:33:07;7.60;;;2.83;;
5682;SDS011;2864;49.220;8.654;2023-12-20T13:35:33;8.23;;;2.73;;
5682;SDS011;2864;49.220;8.654;2023-12-20T13:37:59;8.63;;;3.17;;
5682;SDS011;2864;49.220;8.654;2023-12-20T13:40:25;11.07;;;3.13;;
5682;SDS011;2864;49.220;8.654;2023-12-20T13:42:51;9.47;;;3.00;;
5682;SDS011;2864;49.220;8.654;2023-12-20T13:45:17;12.90;;;3.67;;
5682;SDS011;2864;49.220;8.654;2023-12-20T13:47:43;12.57;;;4.10;;
5682;SDS011;2864;49.220;8.654;2023-12-20T13:50:09;11.63;;;3.40;;
5682;SDS011;2864;49.220;8.654;2023-12-20T13:52:34;12.87;;;2.83;;
5682;SDS011;2864;49.220;8.654;2023-12-20T13:55:00;9.33;;;3.00;;
5682;SDS011;2864;49.220;8.654;2023-12-20T13:57:26;5.70;;;2.90;;
5682;SDS011;2864;49.220;8.654;2023-12-20T13:59:53;8.13;;;2.70;;
5682;SDS011;2864;49.220;8.654;2023-12-20T14:02:22;6.97;;;2.93;;
5682;SDS011;2864;49.220;8.654;2023-12-20T14:04:47;6.43;;;2.60;;
5682;SDS011;2864;49.220;8.654;2023-12-20T14:07:13;9.50;;;2.67;;
5682;SDS011;2864;49.220;8.654;2023-12-20T14:09:39;7.93;;;2.90;;
5682;SDS011;2864;49.220;8.654;2023-12-20T14:12:10;7.27;;;2.73;;
5682;SDS011;2864;49.220;8.654;2023-12-20T14:14:38;7.20;;;2.50;;
5682;SDS011;2864;49.220;8.654;2023-12-20T14:17:04;9.00;;;2.70;;
5682;SDS011;2864;49.220;8.654;2023-12-20T14:19:34;8.20;;;2.80;;
5682;SDS011;2864;49.220;8.654;2023-12-20T14:21:59;6.40;;;2.60;;
5682;SDS011;2864;49.220;8.654;2023-12-20T14:24:26;8.63;;;3.10;;
5682;SDS011;2864;49.220;8.654;2023-12-20T14:26:52;7.07;;;3.00;;
5682;SDS011;2864;49.220;8.654;2023-12-20T14:29:18;9.60;;;3.10;;
5682;SDS011;2864;49.220;8.654;2023-12-20T14:31:44;6.63;;;2.70;;
5682;SDS011;2864;49.220;8.654;2023-12-20T14:34:10;9.33;;;2.73;;
5682;SDS011;2864;49.220;8.654;2023-12-20T14:36:35;8.87;;;2.87;;
5682;SDS011;2864;49.220;8.654;2023-12-20T14:39:01;7.77;;;2.70;;
5682;SDS011;2864;49.220;8.654;2023-12-20T14:41:28;7.33;;;3.10;;
5682;SDS011;2864;49.220;8.654;2023-12-20T14:43:54;9.47;;;2.87;;
5682;SDS011;2864;49.220;8.654;2023-12-20T14:46:20;10.97;;;3.87;;
5682;SDS011;2864;49.220;8.654;2023-12-20T14:48:46;7.90;;;3.53;;
5682;SDS011;2864;49.220;8.654;2023-12-20T14:51:13;5.87;;;3.07;;
5682;SDS011;2864;49.220;8.654;2023-12-20T14:53:38;10.20;;;3.23;;
5682;SDS011;2864;49.220;8.654;2023-12-20T14:56:04;11.73;;;3.07;;
5682;SDS011;2864;49.220;8.654;2023-12-20T14:58:30;6.93;;;2.43;;
5682;SDS011;2864;49.220;8.654;2023-12-20T15:00:56;7.27;;;2.67;;
5682;SDS011;2864;49.220;8.654;2023-12-20T15:03:22;7.00;;;2.67;;
5682;SDS011;2864;49.220;8.654;2023-12-20T15:05:48;9.87;;;3.70;;
5682;SDS011;2864;49.220;8.654;2023-12-20T15:08:15;14.23;;;3.73;;
5682;SDS011;2864;49.220;8.654;2023-12-20T15:10:40;8.93;;;2.90;;
5682;SDS011;2864;49.220;8.654;2023-12-20T15:13:06;6.43;;;3.00;;